createdAt,value
2023-02-02T00:01:55.209Z,6.10
2023-02-02T00:04:27.796Z,4.70
2023-02-02T00:06:57.260Z,4.90
2023-02-02T00:09:26.059Z,4.20
2023-02-02T00:11:52.942Z,4.43
2023-02-02T00:14:20.345Z,3.83
2023-02-02T00:16:48.413Z,4.00
2023-02-02T00:19:17.973Z,4.20
2023-02-02T00:21:45.544Z,3.93
2023-02-02T00:24:14.748Z,4.60
2023-02-02T00:26:43.228Z,3.80
2023-02-02T00:29:15.715Z,3.53
2023-02-02T00:31:42.751Z,3.63
2023-02-02T00:34:14.691Z,4.30
2023-02-02T00:36:42.485Z,4.40
2023-02-02T00:39:11.567Z,3.53
2023-02-02T00:41:38.521Z,4.57
2023-02-02T00:44:24.316Z,4.47
2023-02-02T00:46:51.456Z,3.87
2023-02-02T00:49:18.718Z,4.97
2023-02-02T00:51:45.573Z,4.17
2023-02-02T00:54:14.273Z,5.17
2023-02-02T00:56:42.009Z,4.40
2023-02-02T00:59:09.044Z,4.77
2023-02-02T01:01:36.092Z,4.03
2023-02-02T01:04:03.617Z,5.90
2023-02-02T01:06:30.937Z,4.40
2023-02-02T01:08:59.103Z,4.10
2023-02-02T01:11:27.424Z,4.40
2023-02-02T01:13:54.740Z,4.10
2023-02-02T01:16:25.348Z,4.63
2023-02-02T01:18:55.232Z,4.40
2023-02-02T01:21:23.869Z,4.53
2023-02-02T01:23:52.639Z,4.40
2023-02-02T01:26:19.744Z,5.20
2023-02-02T01:29:01.975Z,4.33
2023-02-02T01:31:28.670Z,5.30
2023-02-02T01:33:55.492Z,5.87
2023-02-02T01:36:24.470Z,5.37
2023-02-02T01:38:51.163Z,5.77
2023-02-02T01:41:21.753Z,5.73
2023-02-02T01:43:50.244Z,5.77
2023-02-02T01:46:18.133Z,6.37
2023-02-02T01:48:49.614Z,6.73
2023-02-02T01:51:31.067Z,6.63
2023-02-02T01:53:59.788Z,6.93
2023-02-02T01:56:36.335Z,5.90
2023-02-02T01:59:04.625Z,5.97
2023-02-02T02:01:31.861Z,6.40
2023-02-02T02:03:58.841Z,5.67
2023-02-02T02:06:26.395Z,7.07
2023-02-02T02:09:00.401Z,6.97
2023-02-02T02:11:27.325Z,6.07
2023-02-02T02:14:15.618Z,5.90
2023-02-02T02:17:04.432Z,5.70
2023-02-02T02:20:09.426Z,5.33
2023-02-02T02:23:18.774Z,7.00
2023-02-02T02:26:30.449Z,5.10
2023-02-02T02:29:00.000Z,5.00
2023-02-02T02:31:45.548Z,4.37
2023-02-02T02:34:23.433Z,4.53
2023-02-02T02:37:00.463Z,4.60
2023-02-02T02:39:36.976Z,3.90
2023-02-02T02:42:11.185Z,4.60
2023-02-02T02:44:37.922Z,4.00
2023-02-02T02:47:04.727Z,4.77
2023-02-02T02:49:31.700Z,4.93
2023-02-02T02:51:58.345Z,5.00
2023-02-02T02:54:38.105Z,5.33
2023-02-02T02:57:21.418Z,4.90
2023-02-02T03:00:02.316Z,5.30
2023-02-02T03:03:14.709Z,4.90
2023-02-02T03:06:00.095Z,4.60
2023-02-02T03:08:32.831Z,6.50
2023-02-02T03:11:02.460Z,5.90
2023-02-02T03:13:30.522Z,5.50
2023-02-02T03:15:57.960Z,6.13
2023-02-02T03:18:29.276Z,5.70
2023-02-02T03:20:56.713Z,5.10
2023-02-02T03:23:23.392Z,5.30
2023-02-02T03:25:50.154Z,4.97
2023-02-02T03:28:17.930Z,6.07
2023-02-02T03:30:47.181Z,4.83
2023-02-02T03:33:15.249Z,5.67
2023-02-02T03:35:42.357Z,6.60
2023-02-02T03:38:09.093Z,4.97
2023-02-02T03:40:35.942Z,5.27
2023-02-02T03:43:02.980Z,5.30
2023-02-02T03:45:32.157Z,4.13
2023-02-02T03:47:58.848Z,4.63
2023-02-02T03:50:25.758Z,4.70
2023-02-02T03:52:53.591Z,3.40
2023-02-02T03:55:20.210Z,4.17
2023-02-02T03:57:46.973Z,4.57
2023-02-02T04:00:14.084Z,4.57
2023-02-02T04:02:40.761Z,4.20
2023-02-02T04:05:07.881Z,4.83
2023-02-02T04:07:34.704Z,4.93
2023-02-02T04:10:01.376Z,6.20
2023-02-02T04:12:27.995Z,5.23
2023-02-02T04:14:54.817Z,4.87
2023-02-02T04:17:21.697Z,4.60
2023-02-02T04:19:48.364Z,5.40
2023-02-02T04:22:15.315Z,6.67
2023-02-02T04:24:42.014Z,6.33
2023-02-02T04:27:08.908Z,5.80
2023-02-02T04:29:35.708Z,6.53
2023-02-02T04:32:02.606Z,6.77
2023-02-02T04:34:29.364Z,6.93
2023-02-02T04:36:56.279Z,7.57
2023-02-02T04:39:23.139Z,7.20
2023-02-02T04:41:49.844Z,9.87
2023-02-02T04:44:16.922Z,7.80
2023-02-02T04:46:44.622Z,7.50
2023-02-02T04:49:12.191Z,7.43
2023-02-02T04:51:40.066Z,8.13
2023-02-02T04:54:07.338Z,7.17
2023-02-02T04:56:35.016Z,6.70
2023-02-02T04:59:02.016Z,6.43
2023-02-02T05:01:30.840Z,5.93
2023-02-02T05:03:58.253Z,7.47
2023-02-02T05:06:25.344Z,6.63
2023-02-02T05:08:52.258Z,6.00
2023-02-02T05:11:21.177Z,9.20
2023-02-02T05:13:49.460Z,7.50
2023-02-02T05:16:16.653Z,6.67
2023-02-02T05:18:48.373Z,6.50
2023-02-02T05:21:15.072Z,7.10
2023-02-02T05:23:41.686Z,7.37
2023-02-02T05:26:22.445Z,7.57
2023-02-02T05:28:49.413Z,7.70
2023-02-02T05:31:16.542Z,6.30
2023-02-02T05:33:43.502Z,6.77
2023-02-02T05:36:10.730Z,7.97
2023-02-02T05:38:37.644Z,6.40
2023-02-02T05:41:04.768Z,6.93
2023-02-02T05:43:32.580Z,7.40
2023-02-02T05:45:59.620Z,6.73
2023-02-02T05:48:26.877Z,6.30
2023-02-02T05:51:09.715Z,6.10
2023-02-02T05:53:36.451Z,6.80
2023-02-02T05:56:03.391Z,8.47
2023-02-02T05:58:30.208Z,7.70
2023-02-02T06:00:57.054Z,7.07
2023-02-02T06:03:24.099Z,7.77
2023-02-02T06:05:50.972Z,7.20
2023-02-02T06:08:17.674Z,7.13
2023-02-02T06:10:44.859Z,6.17
2023-02-02T06:13:11.752Z,8.00
2023-02-02T06:15:38.761Z,6.50
2023-02-02T06:18:08.422Z,6.50
2023-02-02T06:20:35.909Z,6.40
2023-02-02T06:23:03.306Z,7.60
2023-02-02T06:25:30.264Z,8.27
2023-02-02T06:27:58.414Z,7.40
2023-02-02T06:30:25.911Z,6.67
2023-02-02T06:32:53.126Z,6.83
2023-02-02T06:35:20.085Z,7.50
2023-02-02T06:37:50.836Z,6.80
2023-02-02T06:40:17.910Z,7.30
2023-02-02T06:42:44.684Z,5.50
2023-02-02T06:45:11.614Z,6.87
2023-02-02T06:47:38.305Z,6.70
2023-02-02T06:50:05.253Z,7.80
2023-02-02T06:52:32.016Z,7.60
2023-02-02T06:54:58.763Z,6.50
2023-02-02T06:57:25.745Z,6.80
2023-02-02T06:59:52.404Z,7.07
2023-02-02T07:02:19.308Z,6.30
2023-02-02T07:04:46.337Z,6.30
2023-02-02T07:07:13.271Z,6.10
2023-02-02T07:09:40.085Z,9.00
2023-02-02T07:12:06.943Z,8.57
2023-02-02T07:14:33.890Z,8.20
2023-02-02T07:17:00.528Z,6.67
2023-02-02T07:19:27.252Z,7.90
2023-02-02T07:21:53.907Z,6.63
2023-02-02T07:24:20.763Z,6.77
2023-02-02T07:26:47.564Z,7.13
2023-02-02T07:29:14.716Z,7.73
2023-02-02T07:31:41.569Z,8.37
2023-02-02T07:34:08.897Z,6.53
2023-02-02T07:36:35.696Z,7.17
2023-02-02T07:39:05.627Z,7.00
2023-02-02T07:41:35.133Z,6.63
2023-02-02T07:44:02.231Z,7.23
2023-02-02T07:46:29.555Z,7.47
2023-02-02T07:48:57.267Z,8.40
2023-02-02T07:51:25.308Z,6.83
2023-02-02T07:53:54.827Z,7.20
2023-02-02T07:56:23.883Z,7.60
2023-02-02T07:58:52.758Z,9.50
2023-02-02T08:01:22.884Z,6.83
2023-02-02T08:03:51.016Z,8.30
2023-02-02T08:06:31.390Z,7.27
2023-02-02T08:08:59.803Z,9.00
2023-02-02T08:11:28.041Z,7.03
2023-02-02T08:13:57.239Z,8.07
2023-02-02T08:16:25.772Z,8.57
2023-02-02T08:18:53.054Z,7.80
2023-02-02T08:21:20.786Z,8.40
2023-02-02T08:23:48.161Z,7.33
2023-02-02T08:26:18.274Z,8.10
2023-02-02T08:28:47.930Z,8.13
2023-02-02T08:31:21.107Z,7.30
2023-02-02T08:33:49.633Z,7.90
2023-02-02T08:36:21.925Z,9.37
2023-02-02T08:38:49.769Z,8.23
2023-02-02T08:41:19.740Z,7.80
2023-02-02T08:43:47.580Z,8.30
2023-02-02T08:46:16.678Z,7.83
2023-02-02T08:48:44.527Z,8.57
2023-02-02T08:51:17.070Z,8.43
2023-02-02T08:53:44.211Z,9.20
2023-02-02T08:56:14.563Z,9.17
2023-02-02T08:59:04.881Z,8.47
2023-02-02T09:01:33.786Z,8.50
2023-02-02T09:04:06.109Z,8.90
2023-02-02T09:06:35.484Z,9.63
2023-02-02T09:09:02.888Z,8.20
2023-02-02T09:11:29.813Z,7.73
2023-02-02T09:13:59.423Z,7.80
2023-02-02T09:16:27.232Z,9.17
2023-02-02T09:18:54.729Z,8.67
2023-02-02T09:21:22.434Z,9.33
2023-02-02T09:23:50.610Z,9.27
2023-02-02T09:26:18.851Z,8.70
2023-02-02T09:28:54.999Z,9.93
2023-02-02T09:31:22.923Z,9.47
2023-02-02T09:33:49.999Z,9.07
2023-02-02T09:36:22.399Z,9.63
2023-02-02T09:38:51.282Z,8.60
2023-02-02T09:41:30.047Z,8.47
2023-02-02T09:44:15.994Z,8.70
2023-02-02T09:47:05.068Z,10.00
2023-02-02T09:50:06.994Z,8.67
2023-02-02T09:53:03.195Z,10.17
2023-02-02T09:56:02.348Z,9.20
2023-02-02T09:58:33.282Z,9.57
2023-02-02T10:01:17.118Z,10.00
2023-02-02T10:03:50.328Z,9.53
2023-02-02T10:06:47.275Z,9.67
2023-02-02T10:09:40.736Z,9.90
2023-02-02T10:12:22.825Z,8.17
2023-02-02T10:15:02.430Z,9.13
2023-02-02T10:17:48.291Z,11.57
2023-02-02T10:20:30.917Z,9.60
2023-02-02T10:23:06.726Z,9.20
2023-02-02T10:25:35.656Z,9.47
2023-02-02T10:28:18.514Z,8.60
2023-02-02T10:31:00.063Z,8.60
2023-02-02T10:33:39.885Z,8.30
2023-02-02T10:36:22.387Z,9.63
2023-02-02T10:39:16.548Z,8.90
2023-02-02T10:42:04.542Z,8.27
2023-02-02T10:44:42.841Z,9.10
2023-02-02T10:47:15.474Z,7.80
2023-02-02T10:49:42.456Z,8.83
2023-02-02T10:52:21.103Z,8.37
2023-02-02T10:55:07.640Z,9.07
2023-02-02T10:58:07.056Z,8.00
2023-02-02T11:00:50.618Z,7.50
2023-02-02T11:03:22.109Z,7.07
2023-02-02T11:06:08.357Z,8.57
2023-02-02T11:08:42.123Z,8.20
2023-02-02T11:11:22.875Z,8.60
2023-02-02T11:14:04.979Z,8.33
2023-02-02T11:16:42.690Z,7.30
2023-02-02T11:19:22.513Z,8.23
2023-02-02T11:21:53.288Z,7.70
2023-02-02T11:24:45.689Z,7.43
2023-02-02T11:27:21.145Z,6.27
2023-02-02T11:29:57.156Z,6.73
2023-02-02T11:32:31.927Z,7.73
2023-02-02T11:35:08.280Z,6.93
2023-02-02T11:37:37.434Z,7.07
2023-02-02T11:40:28.763Z,7.27
2023-02-02T11:42:58.546Z,7.07
2023-02-02T11:45:49.591Z,6.50
2023-02-02T11:48:22.893Z,7.77
2023-02-02T11:50:55.419Z,6.60
2023-02-02T11:53:31.631Z,7.40
2023-02-02T11:56:09.108Z,7.07
2023-02-02T11:58:44.946Z,6.87
2023-02-02T12:01:39.827Z,7.10
2023-02-02T12:04:16.053Z,7.13
2023-02-02T12:06:43.987Z,6.70
2023-02-02T12:09:17.791Z,7.97
2023-02-02T12:12:11.774Z,5.70
2023-02-02T12:15:07.586Z,7.50
2023-02-02T12:17:52.694Z,7.43
2023-02-02T12:21:02.997Z,7.97
2023-02-02T12:24:05.267Z,7.07
2023-02-02T12:26:37.072Z,8.20
2023-02-02T12:29:16.515Z,7.63
2023-02-02T12:31:53.864Z,7.53
2023-02-02T12:34:53.154Z,8.10
2023-02-02T12:37:44.303Z,7.10
2023-02-02T12:40:30.351Z,7.40
2023-02-02T12:43:29.401Z,8.40
2023-02-02T12:46:20.503Z,7.50
2023-02-02T12:49:19.133Z,8.63
2023-02-02T12:52:24.679Z,8.10
2023-02-02T12:54:55.052Z,9.37
2023-02-02T12:57:23.576Z,8.30
2023-02-02T13:00:14.657Z,8.70
2023-02-02T13:03:12.478Z,8.23
2023-02-02T13:06:11.045Z,7.90
2023-02-02T13:09:01.905Z,7.97
2023-02-02T13:11:42.768Z,9.20
2023-02-02T13:14:20.295Z,8.17
2023-02-02T13:16:52.007Z,8.97
2023-02-02T13:19:37.829Z,8.53
2023-02-02T13:22:10.757Z,8.10
2023-02-02T13:24:41.408Z,7.47
2023-02-02T13:27:14.827Z,7.30
2023-02-02T13:29:51.803Z,7.53
2023-02-02T13:32:36.511Z,6.80
2023-02-02T13:35:23.135Z,7.47
2023-02-02T13:38:01.412Z,7.47
2023-02-02T13:40:33.874Z,7.60
2023-02-02T13:43:19.081Z,6.23
2023-02-02T13:46:05.132Z,8.80
2023-02-02T13:48:51.689Z,8.77
2023-02-02T13:51:56.951Z,7.60
2023-02-02T13:54:46.626Z,7.47
2023-02-02T13:57:38.158Z,7.30
2023-02-02T14:00:16.766Z,6.80
2023-02-02T14:02:58.041Z,8.47
2023-02-02T14:05:31.351Z,7.90
2023-02-02T14:08:11.929Z,6.67
2023-02-02T14:10:44.247Z,8.00
2023-02-02T14:13:32.934Z,7.33
2023-02-02T14:16:03.499Z,8.00
2023-02-02T14:18:49.150Z,6.80
2023-02-02T14:21:34.090Z,7.07
2023-02-02T14:24:25.526Z,6.10
2023-02-02T14:26:52.236Z,9.63
2023-02-02T14:29:39.367Z,6.10
2023-02-02T14:32:08.954Z,6.90
2023-02-02T14:34:45.463Z,7.00
2023-02-02T14:37:24.414Z,6.90
2023-02-02T14:40:06.559Z,6.40
2023-02-02T14:43:22.806Z,6.40
2023-02-02T14:46:15.641Z,6.83
2023-02-02T14:48:53.358Z,6.80
2023-02-02T14:51:25.080Z,6.17
2023-02-02T14:54:00.756Z,6.10
2023-02-02T14:56:45.416Z,7.30
2023-02-02T14:59:23.201Z,7.70
2023-02-02T15:02:17.985Z,6.03
2023-02-02T15:04:47.823Z,7.63
2023-02-02T15:07:23.978Z,6.50
2023-02-02T15:09:51.917Z,7.30
2023-02-02T15:12:29.886Z,6.30
2023-02-02T15:15:27.909Z,6.90
2023-02-02T15:18:12.825Z,7.17
2023-02-02T15:20:48.810Z,6.73
2023-02-02T15:23:35.101Z,7.07
2023-02-02T15:26:24.807Z,7.20
2023-02-02T15:28:54.792Z,7.83
2023-02-02T15:31:43.924Z,7.90
2023-02-02T15:34:25.000Z,9.83
2023-02-02T15:36:59.919Z,8.00
2023-02-02T15:39:34.010Z,8.57
2023-02-02T15:42:24.122Z,9.70
2023-02-02T15:44:50.793Z,12.00
2023-02-02T15:47:20.916Z,8.40
2023-02-02T15:49:48.553Z,9.43
2023-02-02T15:52:21.848Z,9.03
2023-02-02T15:54:52.012Z,9.33
2023-02-02T15:57:36.406Z,7.30
2023-02-02T16:00:24.786Z,9.50
2023-02-02T16:02:58.104Z,7.30
2023-02-02T16:05:31.545Z,9.93
2023-02-02T16:08:07.807Z,9.70
2023-02-02T16:10:35.594Z,9.20
2023-02-02T16:13:03.345Z,8.93
2023-02-02T16:15:31.897Z,8.83
2023-02-02T16:18:05.692Z,9.70
2023-02-02T16:20:35.045Z,8.20
2023-02-02T16:23:04.785Z,8.00
2023-02-02T16:25:37.099Z,7.13
2023-02-02T16:28:04.532Z,8.80
2023-02-02T16:30:35.512Z,8.03
2023-02-02T16:33:35.575Z,8.93
2023-02-02T16:36:25.360Z,9.40
2023-02-02T16:38:54.799Z,8.50
2023-02-02T16:41:35.913Z,7.43
2023-02-02T16:44:33.073Z,8.37
2023-02-02T16:47:00.233Z,8.03
2023-02-02T16:49:28.550Z,8.63
2023-02-02T16:52:19.918Z,9.10
2023-02-02T16:54:52.618Z,7.80
2023-02-02T16:57:27.234Z,8.30
2023-02-02T16:59:57.106Z,8.00
2023-02-02T17:02:46.193Z,8.97
2023-02-02T17:05:19.686Z,10.10
2023-02-02T17:07:50.107Z,9.90
2023-02-02T17:10:16.746Z,9.47
2023-02-02T17:12:45.451Z,10.10
2023-02-02T17:15:18.360Z,9.30
2023-02-02T17:17:48.206Z,8.97
2023-02-02T17:20:16.500Z,8.93
2023-02-02T17:22:49.369Z,9.67
2023-02-02T17:25:37.644Z,10.00
2023-02-02T17:28:09.807Z,10.90
2023-02-02T17:30:36.812Z,10.30
2023-02-02T17:33:03.933Z,11.00
2023-02-02T17:35:43.470Z,11.07
2023-02-02T17:38:17.565Z,10.80
2023-02-02T17:40:44.324Z,10.17
2023-02-02T17:43:12.198Z,9.70
2023-02-02T17:45:39.000Z,9.67
2023-02-02T17:48:06.045Z,9.70
2023-02-02T17:50:33.706Z,10.93
2023-02-02T17:53:00.340Z,11.07
2023-02-02T17:55:41.987Z,10.60
2023-02-02T17:58:10.649Z,10.70
2023-02-02T18:00:39.846Z,10.23
2023-02-02T18:03:20.877Z,10.20
2023-02-02T18:05:47.939Z,11.03
2023-02-02T18:08:14.797Z,10.37
2023-02-02T18:10:42.121Z,9.80
2023-02-02T18:13:16.097Z,10.63
2023-02-02T18:15:43.933Z,11.17
2023-02-02T18:18:14.477Z,10.33
2023-02-02T18:20:45.118Z,10.97
2023-02-02T18:23:12.243Z,12.17
2023-02-02T18:25:39.513Z,13.57
2023-02-02T18:28:10.472Z,13.17
2023-02-02T18:30:41.802Z,14.10
2023-02-02T18:33:09.997Z,15.70
2023-02-02T18:35:46.476Z,16.73
2023-02-02T18:38:14.503Z,14.90
2023-02-02T18:40:41.981Z,15.73
2023-02-02T18:43:08.864Z,17.63
2023-02-02T18:45:36.502Z,16.43
2023-02-02T18:48:03.537Z,15.90
2023-02-02T18:50:30.278Z,17.20
2023-02-02T18:52:57.266Z,15.67
2023-02-02T18:55:24.546Z,16.80
2023-02-02T18:57:51.504Z,15.50
2023-02-02T19:00:19.600Z,17.40
2023-02-02T19:02:46.227Z,15.90
2023-02-02T19:05:31.303Z,15.13
2023-02-02T19:07:58.994Z,15.63
2023-02-02T19:10:27.980Z,14.80
2023-02-02T19:13:10.480Z,15.73
2023-02-02T19:15:39.597Z,16.20
2023-02-02T19:18:14.827Z,14.97
2023-02-02T19:20:42.830Z,14.47
2023-02-02T19:23:32.116Z,15.70
2023-02-02T19:25:59.762Z,14.17
2023-02-02T19:28:28.388Z,14.10
2023-02-02T19:31:01.102Z,15.70
2023-02-02T19:33:47.221Z,14.43
2023-02-02T19:36:20.795Z,13.47
2023-02-02T19:38:50.111Z,13.17
2023-02-02T19:41:27.613Z,12.30
2023-02-02T19:44:06.708Z,13.40
2023-02-02T19:46:43.256Z,14.97
2023-02-02T19:49:24.769Z,12.97
2023-02-02T19:51:56.533Z,14.13
2023-02-02T19:54:42.513Z,12.03
2023-02-02T19:57:34.187Z,12.20
2023-02-02T20:00:15.381Z,12.40
2023-02-02T20:03:01.476Z,13.33
2023-02-02T20:05:40.900Z,12.87
2023-02-02T20:08:40.144Z,13.63
2023-02-02T20:11:32.104Z,13.53
2023-02-02T20:14:19.101Z,12.17
2023-02-02T20:17:21.379Z,13.00
2023-02-02T20:19:48.432Z,12.47
2023-02-02T20:22:26.817Z,13.20
2023-02-02T20:24:54.791Z,13.67
2023-02-02T20:27:29.793Z,14.40
2023-02-02T20:30:15.585Z,14.20
2023-02-02T20:32:45.404Z,13.80
2023-02-02T20:35:39.701Z,13.60
2023-02-02T20:38:28.558Z,14.50
2023-02-02T20:40:56.346Z,16.00
2023-02-02T20:43:23.268Z,16.43
2023-02-02T20:45:50.618Z,15.77
2023-02-02T20:48:17.530Z,16.30
2023-02-02T20:50:47.192Z,16.77
2023-02-02T20:53:16.469Z,17.03
2023-02-02T20:55:44.672Z,16.70
2023-02-02T20:58:12.298Z,16.80
2023-02-02T21:00:40.278Z,17.50
2023-02-02T21:03:07.364Z,17.90
2023-02-02T21:05:35.135Z,17.03
2023-02-02T21:08:02.408Z,17.33
2023-02-02T21:10:29.409Z,17.27
2023-02-02T21:12:57.015Z,16.40
2023-02-02T21:15:25.558Z,18.10
2023-02-02T21:17:53.503Z,17.80
2023-02-02T21:20:20.687Z,16.43
2023-02-02T21:22:48.839Z,16.80
2023-02-02T21:25:16.160Z,17.67
2023-02-02T21:27:44.558Z,17.23
2023-02-02T21:30:12.406Z,16.33
2023-02-02T21:32:39.432Z,18.33
2023-02-02T21:35:07.095Z,18.20
2023-02-02T21:37:37.755Z,17.20
2023-02-02T21:40:15.132Z,16.97
2023-02-02T21:42:47.374Z,16.20
2023-02-02T21:45:20.410Z,18.23
2023-02-02T21:47:59.026Z,18.57
2023-02-02T21:50:31.707Z,17.27
2023-02-02T21:53:10.600Z,17.37
2023-02-02T21:55:39.290Z,18.20
2023-02-02T21:58:18.540Z,17.33
2023-02-02T22:00:45.737Z,17.13
2023-02-02T22:03:49.897Z,18.20
2023-02-02T22:06:34.869Z,18.80
2023-02-02T22:09:14.226Z,17.20
2023-02-02T22:11:52.114Z,17.37
2023-02-02T22:14:20.560Z,17.27
2023-02-02T22:17:22.546Z,18.47
2023-02-02T22:20:11.949Z,17.67
2023-02-02T22:22:44.362Z,17.50
2023-02-02T22:25:17.360Z,19.03
2023-02-02T22:27:55.622Z,18.70
2023-02-02T22:30:27.760Z,18.70
2023-02-02T22:32:55.929Z,19.57
2023-02-02T22:35:23.368Z,17.70
2023-02-02T22:37:51.503Z,18.03
2023-02-02T22:40:22.661Z,19.40
2023-02-02T22:42:54.964Z,19.60
2023-02-02T22:45:22.817Z,18.83
2023-02-02T22:47:50.187Z,18.13
2023-02-02T22:50:28.303Z,19.70
2023-02-02T22:52:56.132Z,18.87
2023-02-02T22:55:23.212Z,19.63
2023-02-02T22:57:50.346Z,19.93
2023-02-02T23:00:24.717Z,17.80
2023-02-02T23:02:52.721Z,19.37
2023-02-02T23:05:21.052Z,18.37
2023-02-02T23:07:48.958Z,19.40
2023-02-02T23:10:18.371Z,18.43
2023-02-02T23:12:45.809Z,20.07
2023-02-02T23:15:13.903Z,18.53
2023-02-02T23:17:41.627Z,18.60
2023-02-02T23:20:12.001Z,18.13
2023-02-02T23:22:39.280Z,16.80
2023-02-02T23:25:07.226Z,17.73
2023-02-02T23:27:34.115Z,17.37
2023-02-02T23:30:01.442Z,17.23
2023-02-02T23:32:28.390Z,17.23
2023-02-02T23:34:55.322Z,16.40
2023-02-02T23:37:22.303Z,17.50
2023-02-02T23:39:49.166Z,17.37
2023-02-02T23:42:16.018Z,15.87
2023-02-02T23:44:42.894Z,16.33
2023-02-02T23:47:10.610Z,15.57
2023-02-02T23:49:38.234Z,17.10
2023-02-02T23:52:06.300Z,16.50
2023-02-02T23:54:33.812Z,16.03
2023-02-02T23:57:01.584Z,17.27
2023-02-02T23:59:28.594Z,14.83
